createdAt,value
2022-08-20T00:02:14.803Z,21.50
2022-08-20T00:04:42.835Z,21.50
2022-08-20T00:07:12.559Z,21.67
2022-08-20T00:09:41.638Z,21.63
2022-08-20T00:12:10.868Z,21.70
2022-08-20T00:14:39.624Z,21.53
2022-08-20T00:17:07.718Z,21.35
2022-08-20T00:19:35.857Z,21.38
2022-08-20T00:22:03.879Z,21.34
2022-08-20T00:24:33.340Z,21.43
2022-08-20T00:27:01.621Z,21.38
2022-08-20T00:29:29.905Z,21.34
2022-08-20T00:31:57.908Z,21.24
2022-08-20T00:34:26.069Z,21.17
2022-08-20T00:36:54.174Z,21.14
2022-08-20T00:39:22.214Z,21.15
2022-08-20T00:41:52.164Z,21.11
2022-08-20T00:44:22.992Z,20.94
2022-08-20T00:46:52.160Z,20.95
2022-08-20T00:49:24.768Z,20.83
2022-08-20T00:51:57.542Z,20.79
2022-08-20T00:54:31.122Z,20.77
2022-08-20T00:57:05.135Z,20.85
2022-08-20T00:59:37.214Z,20.76
2022-08-20T01:02:07.638Z,20.76
2022-08-20T01:04:36.631Z,20.72
2022-08-20T01:07:06.893Z,20.67
2022-08-20T01:09:57.881Z,20.69
2022-08-20T01:12:25.821Z,20.69
2022-08-20T01:14:54.577Z,20.72
2022-08-20T01:17:26.374Z,20.74
2022-08-20T01:19:58.838Z,20.63
2022-08-20T01:22:50.511Z,20.57
2022-08-20T01:25:25.116Z,20.62
2022-08-20T01:27:56.166Z,20.62
2022-08-20T01:30:28.424Z,20.55
2022-08-20T01:32:56.568Z,20.64
2022-08-20T01:35:25.727Z,20.63
2022-08-20T01:37:53.942Z,20.69
2022-08-20T01:40:32.766Z,20.67
2022-08-20T01:43:09.010Z,20.66
2022-08-20T01:45:40.199Z,20.72
2022-08-20T01:48:09.585Z,20.72
2022-08-20T01:50:41.381Z,20.63
2022-08-20T01:53:22.194Z,20.66
2022-08-20T01:55:50.185Z,20.63
2022-08-20T01:58:19.556Z,20.70
2022-08-20T02:00:47.878Z,20.81
2022-08-20T02:03:15.989Z,20.77
2022-08-20T02:05:43.993Z,20.72
2022-08-20T02:08:12.172Z,20.66
2022-08-20T02:10:40.850Z,20.69
2022-08-20T02:13:10.021Z,20.74
2022-08-20T02:15:39.948Z,20.74
2022-08-20T02:18:14.913Z,20.63
2022-08-20T02:20:44.512Z,20.81
2022-08-20T02:23:13.377Z,20.77
2022-08-20T02:25:44.815Z,20.67
2022-08-20T02:28:15.420Z,20.73
2022-08-20T02:30:47.201Z,20.67
2022-08-20T02:33:17.327Z,20.56
2022-08-20T02:35:48.011Z,20.66
2022-08-20T02:38:17.614Z,20.57
2022-08-20T02:40:49.067Z,20.59
2022-08-20T02:43:18.377Z,20.57
2022-08-20T02:45:48.249Z,20.46
2022-08-20T02:48:20.928Z,20.32
2022-08-20T02:50:51.342Z,20.38
2022-08-20T02:53:19.748Z,20.48
2022-08-20T02:55:47.900Z,20.42
2022-08-20T02:58:16.141Z,20.42
2022-08-20T03:00:44.650Z,20.40
2022-08-20T03:03:15.303Z,20.32
2022-08-20T03:05:45.784Z,20.32
2022-08-20T03:08:15.693Z,20.22
2022-08-20T03:10:46.310Z,20.14
2022-08-20T03:13:16.155Z,19.88
2022-08-20T03:15:47.050Z,19.83
2022-08-20T03:18:23.190Z,19.76
2022-08-20T03:20:52.086Z,19.70
2022-08-20T03:23:21.728Z,19.62
2022-08-20T03:25:50.355Z,19.52
2022-08-20T03:28:18.934Z,19.45
2022-08-20T03:30:47.584Z,19.41
2022-08-20T03:33:17.299Z,19.31
2022-08-20T03:35:45.166Z,19.32
2022-08-20T03:38:15.149Z,19.32
2022-08-20T03:40:43.671Z,19.24
2022-08-20T03:43:11.788Z,19.26
2022-08-20T03:45:42.175Z,19.24
2022-08-20T03:48:12.031Z,19.17
2022-08-20T03:50:42.471Z,19.14
2022-08-20T03:53:13.197Z,19.11
2022-08-20T03:55:45.291Z,19.11
2022-08-20T03:58:14.710Z,19.07
2022-08-20T04:00:46.020Z,19.03
2022-08-20T04:03:14.000Z,18.96
2022-08-20T04:05:44.974Z,19.00
2022-08-20T04:08:15.934Z,18.94
2022-08-20T04:10:46.444Z,18.94
2022-08-20T04:13:18.084Z,18.89
2022-08-20T04:15:46.474Z,18.86
2022-08-20T04:18:20.416Z,18.87
2022-08-20T04:20:49.702Z,18.87
2022-08-20T04:23:17.878Z,18.91
2022-08-20T04:25:46.411Z,19.01
2022-08-20T04:28:17.071Z,18.98
2022-08-20T04:30:47.586Z,18.98
2022-08-20T04:33:33.248Z,19.04
2022-08-20T04:36:06.159Z,19.07
2022-08-20T04:38:50.596Z,19.21
2022-08-20T04:41:22.894Z,19.26
2022-08-20T04:43:53.107Z,19.17
2022-08-20T04:46:23.253Z,19.22
2022-08-20T04:48:51.234Z,19.04
2022-08-20T04:51:22.994Z,19.06
2022-08-20T04:53:53.549Z,19.06
2022-08-20T04:56:24.267Z,19.04
2022-08-20T04:58:53.598Z,18.96
2022-08-20T05:01:21.989Z,19.01
2022-08-20T05:03:50.395Z,19.00
2022-08-20T05:06:18.747Z,18.97
2022-08-20T05:08:48.494Z,18.97
2022-08-20T05:11:33.807Z,19.04
2022-08-20T05:14:06.292Z,19.12
2022-08-20T05:16:39.085Z,19.24
2022-08-20T05:19:08.791Z,19.25
2022-08-20T05:21:37.219Z,19.14
2022-08-20T05:24:07.187Z,19.19
2022-08-20T05:26:35.591Z,19.19
2022-08-20T05:29:05.218Z,19.11
2022-08-20T05:31:34.909Z,19.14
2022-08-20T05:34:03.666Z,19.11
2022-08-20T05:36:31.844Z,19.11
2022-08-20T05:38:59.802Z,19.08
2022-08-20T05:41:30.367Z,19.07
2022-08-20T05:44:01.868Z,19.11
2022-08-20T05:46:31.224Z,19.25
2022-08-20T05:49:00.240Z,19.21
2022-08-20T05:51:29.072Z,19.38
2022-08-20T05:53:59.012Z,19.35
2022-08-20T05:56:31.277Z,19.45
2022-08-20T05:59:02.589Z,19.58
2022-08-20T06:01:31.031Z,19.65
2022-08-20T06:04:16.730Z,19.46
2022-08-20T06:06:47.193Z,19.43
2022-08-20T06:09:30.412Z,19.34
2022-08-20T06:12:03.294Z,19.26
2022-08-20T06:14:31.498Z,19.32
2022-08-20T06:17:05.741Z,19.55
2022-08-20T06:19:34.939Z,19.65
2022-08-20T06:22:08.715Z,19.73
2022-08-20T06:24:47.836Z,19.88
2022-08-20T06:27:17.875Z,19.78
2022-08-20T06:29:46.059Z,20.04
2022-08-20T06:32:14.363Z,20.17
2022-08-20T06:34:49.019Z,20.32
2022-08-20T06:37:23.265Z,20.29
2022-08-20T06:39:56.443Z,20.53
2022-08-20T06:42:25.895Z,20.59
2022-08-20T06:44:54.071Z,20.50
2022-08-20T06:47:23.610Z,20.43
2022-08-20T06:49:51.943Z,20.35
2022-08-20T06:52:20.069Z,20.17
2022-08-20T06:55:10.510Z,20.18
2022-08-20T06:57:40.154Z,20.00
2022-08-20T07:00:11.317Z,20.10
2022-08-20T07:02:39.325Z,20.12
2022-08-20T07:05:08.324Z,20.17
2022-08-20T07:07:37.239Z,20.15
2022-08-20T07:10:07.273Z,20.24
2022-08-20T07:12:36.474Z,20.21
2022-08-20T07:15:08.153Z,20.22
2022-08-20T07:17:36.542Z,20.42
2022-08-20T07:20:05.842Z,20.26
2022-08-20T07:22:35.550Z,20.22
2022-08-20T07:25:03.560Z,20.10
2022-08-20T07:27:31.712Z,20.01
2022-08-20T07:30:17.642Z,20.04
2022-08-20T07:32:49.633Z,20.17
2022-08-20T07:35:19.252Z,20.57
2022-08-20T07:37:49.500Z,20.57
2022-08-20T07:40:25.338Z,20.79
2022-08-20T07:42:54.908Z,21.38
2022-08-20T07:45:23.618Z,21.69
2022-08-20T07:47:54.235Z,21.63
2022-08-20T07:50:27.261Z,21.43
2022-08-20T07:52:55.413Z,21.61
2022-08-20T07:55:23.380Z,21.54
2022-08-20T07:57:51.774Z,21.01
2022-08-20T08:00:22.283Z,20.60
2022-08-20T08:02:50.507Z,20.49
2022-08-20T08:05:20.058Z,20.39
2022-08-20T08:07:48.263Z,20.31
2022-08-20T08:10:19.447Z,20.53
2022-08-20T08:12:52.385Z,20.87
2022-08-20T08:15:25.501Z,21.22
2022-08-20T08:17:55.490Z,21.41
2022-08-20T08:20:25.096Z,22.18
2022-08-20T08:22:53.858Z,22.67
2022-08-20T08:25:22.172Z,22.94
2022-08-20T08:27:50.296Z,22.46
2022-08-20T08:30:18.594Z,22.47
2022-08-20T08:33:03.807Z,22.50
2022-08-20T08:35:34.272Z,22.38
2022-08-20T08:38:02.816Z,22.12
2022-08-20T08:40:31.900Z,21.94
2022-08-20T08:43:04.181Z,21.95
2022-08-20T08:45:36.742Z,22.02
2022-08-20T08:48:05.794Z,22.01
2022-08-20T08:50:54.190Z,21.98
2022-08-20T08:53:27.270Z,22.04
2022-08-20T08:55:55.314Z,21.94
2022-08-20T08:58:23.486Z,22.09
2022-08-20T09:00:56.327Z,22.39
2022-08-20T09:03:29.442Z,22.60
2022-08-20T09:06:01.198Z,22.97
2022-08-20T09:08:33.448Z,23.14
2022-08-20T09:11:08.191Z,23.32
2022-08-20T09:13:36.529Z,23.66
2022-08-20T09:16:04.992Z,23.39
2022-08-20T09:18:33.272Z,23.57
2022-08-20T09:21:02.984Z,23.14
2022-08-20T09:23:31.098Z,23.18
2022-08-20T09:26:01.236Z,22.70
2022-08-20T09:28:32.159Z,22.45
2022-08-20T09:31:00.489Z,21.93
2022-08-20T09:33:28.762Z,22.08
2022-08-20T09:35:56.817Z,22.22
2022-08-20T09:38:26.150Z,22.53
2022-08-20T09:40:54.183Z,22.80
2022-08-20T09:43:22.174Z,22.87
2022-08-20T09:45:50.142Z,23.15
2022-08-20T09:48:18.091Z,22.88
2022-08-20T09:50:50.994Z,23.16
2022-08-20T09:53:20.967Z,23.54
2022-08-20T09:55:53.868Z,23.59
2022-08-20T09:58:26.993Z,23.23
2022-08-20T10:00:55.097Z,23.70
2022-08-20T10:03:24.326Z,23.82
2022-08-20T10:05:52.460Z,24.05
2022-08-20T10:08:20.491Z,24.32
2022-08-20T10:10:48.506Z,24.99
2022-08-20T10:13:17.846Z,24.90
2022-08-20T10:15:45.942Z,23.80
2022-08-20T10:18:13.980Z,22.92
2022-08-20T10:20:42.757Z,22.53
2022-08-20T10:23:10.941Z,22.23
2022-08-20T10:25:40.074Z,22.08
2022-08-20T10:28:08.172Z,22.06
2022-08-20T10:30:38.152Z,21.98
2022-08-20T10:33:06.535Z,21.87
2022-08-20T10:35:34.521Z,22.04
2022-08-20T10:38:02.543Z,21.91
2022-08-20T10:40:30.524Z,21.66
2022-08-20T10:42:58.540Z,21.53
2022-08-20T10:45:26.738Z,21.66
2022-08-20T10:47:56.153Z,21.59
2022-08-20T10:50:24.393Z,21.88
2022-08-20T10:52:58.323Z,22.14
2022-08-20T10:55:26.298Z,22.36
2022-08-20T10:57:55.151Z,22.31
2022-08-20T11:00:23.233Z,22.52
2022-08-20T11:02:51.897Z,22.77
2022-08-20T11:05:21.377Z,22.80
2022-08-20T11:07:56.034Z,22.80
2022-08-20T11:10:25.201Z,23.07
2022-08-20T11:12:53.256Z,22.98
2022-08-20T11:15:21.328Z,23.04
2022-08-20T11:17:49.299Z,23.32
2022-08-20T11:20:21.047Z,23.78
2022-08-20T11:22:50.344Z,23.94
2022-08-20T11:25:18.425Z,24.59
2022-08-20T11:27:49.974Z,23.88
2022-08-20T11:30:21.310Z,23.23
2022-08-20T11:32:49.351Z,22.86
2022-08-20T11:35:41.791Z,22.70
2022-08-20T11:38:08.077Z,23.26
2022-08-20T11:40:36.305Z,23.75
2022-08-20T11:43:14.642Z,23.98
2022-08-20T11:45:43.645Z,24.06
2022-08-20T11:48:11.767Z,24.25
2022-08-20T11:50:39.836Z,24.64
2022-08-20T11:53:09.386Z,25.23
2022-08-20T11:55:38.672Z,24.66
2022-08-20T11:58:07.650Z,25.60
2022-08-20T12:00:36.853Z,24.87
2022-08-20T12:03:09.065Z,24.49
2022-08-20T12:05:38.136Z,24.29
2022-08-20T12:08:06.791Z,24.02
2022-08-20T12:10:36.660Z,24.00
2022-08-20T12:13:05.026Z,23.67
2022-08-20T12:15:33.359Z,23.36
2022-08-20T12:18:01.618Z,23.28
2022-08-20T12:20:29.693Z,23.67
2022-08-20T12:22:58.972Z,23.53
2022-08-20T12:25:27.905Z,23.19
2022-08-20T12:27:57.558Z,24.28
2022-08-20T12:30:26.212Z,25.25
2022-08-20T12:32:54.246Z,25.29
2022-08-20T12:35:22.402Z,25.91
2022-08-20T12:37:50.778Z,26.78
2022-08-20T12:40:21.474Z,26.50
2022-08-20T12:43:01.675Z,25.51
2022-08-20T12:45:30.153Z,25.20
2022-08-20T12:48:04.134Z,24.75
2022-08-20T12:50:32.854Z,24.11
2022-08-20T12:53:01.002Z,23.93
2022-08-20T12:55:29.440Z,23.81
2022-08-20T12:58:00.270Z,23.91
2022-08-20T13:00:32.509Z,25.73
2022-08-20T13:03:03.584Z,27.87
2022-08-20T13:05:32.738Z,28.43
2022-08-20T13:08:00.930Z,28.26
2022-08-20T13:10:33.347Z,29.27
2022-08-20T13:13:02.759Z,29.80
2022-08-20T13:15:33.874Z,29.71
2022-08-20T13:18:03.820Z,28.43
2022-08-20T13:20:34.582Z,30.82
2022-08-20T13:23:04.004Z,30.96
2022-08-20T13:25:32.458Z,28.65
2022-08-20T13:28:03.952Z,27.01
2022-08-20T13:30:34.687Z,25.91
2022-08-20T13:33:02.783Z,25.26
2022-08-20T13:35:31.212Z,24.63
2022-08-20T13:37:59.284Z,25.37
2022-08-20T13:40:27.782Z,28.79
2022-08-20T13:42:56.139Z,29.96
2022-08-20T13:45:24.277Z,31.10
2022-08-20T13:47:55.916Z,31.06
2022-08-20T13:50:26.782Z,30.86
2022-08-20T13:52:56.183Z,29.38
2022-08-20T13:55:26.347Z,30.06
2022-08-20T13:57:56.427Z,30.88
2022-08-20T14:00:31.790Z,30.02
2022-08-20T14:03:02.388Z,32.26
2022-08-20T14:05:31.408Z,31.34
2022-08-20T14:08:06.007Z,31.86
2022-08-20T14:10:34.240Z,33.29
2022-08-20T14:13:03.770Z,31.61
2022-08-20T14:15:32.148Z,28.54
2022-08-20T14:18:01.893Z,27.12
2022-08-20T14:20:32.405Z,27.06
2022-08-20T14:23:02.077Z,29.88
2022-08-20T14:25:31.832Z,27.95
2022-08-20T14:28:00.629Z,26.68
2022-08-20T14:30:31.243Z,25.43
2022-08-20T14:32:59.257Z,25.14
2022-08-20T14:35:28.644Z,24.61
2022-08-20T14:37:56.676Z,24.08
2022-08-20T14:40:27.161Z,23.93
2022-08-20T14:42:56.854Z,23.77
2022-08-20T14:45:25.160Z,23.49
2022-08-20T14:47:54.730Z,23.29
2022-08-20T14:50:25.040Z,23.20
2022-08-20T14:52:55.825Z,22.94
2022-08-20T14:55:26.023Z,22.36
2022-08-20T14:57:54.188Z,21.36
2022-08-20T15:00:26.145Z,20.73
2022-08-20T15:02:54.398Z,20.24
2022-08-20T15:05:22.374Z,19.94
2022-08-20T15:07:53.976Z,19.83
2022-08-20T15:10:26.549Z,19.67
2022-08-20T15:12:55.112Z,19.63
2022-08-20T15:15:24.466Z,19.70
2022-08-20T15:17:54.971Z,19.73
2022-08-20T15:20:26.590Z,19.76
2022-08-20T15:22:55.772Z,19.74
2022-08-20T15:25:29.245Z,19.83
2022-08-20T15:28:06.189Z,20.00
2022-08-20T15:30:34.268Z,19.94
2022-08-20T15:33:02.715Z,19.95
2022-08-20T15:35:30.932Z,19.95
2022-08-20T15:38:00.180Z,19.90
2022-08-20T15:40:32.331Z,19.97
2022-08-20T15:43:02.562Z,20.18
2022-08-20T15:45:30.980Z,20.24
2022-08-20T15:48:04.221Z,20.42
2022-08-20T15:50:51.016Z,20.72
2022-08-20T15:53:23.036Z,21.39
2022-08-20T15:56:00.879Z,21.66
2022-08-20T15:58:37.054Z,21.73
2022-08-20T16:01:24.555Z,21.88
2022-08-20T16:04:22.929Z,22.38
2022-08-20T16:06:55.310Z,22.55
2022-08-20T16:09:39.255Z,25.54
2022-08-20T16:12:12.413Z,26.49
2022-08-20T16:14:43.085Z,26.64
2022-08-20T16:17:14.659Z,26.83
2022-08-20T16:19:52.986Z,28.05
2022-08-20T16:22:21.559Z,27.68
2022-08-20T16:24:50.698Z,27.43
2022-08-20T16:27:28.357Z,26.58
2022-08-20T16:30:03.015Z,26.47
2022-08-20T16:32:43.062Z,27.44
2022-08-20T16:35:29.565Z,27.61
2022-08-20T16:38:05.260Z,27.64
2022-08-20T16:40:39.891Z,26.91
2022-08-20T16:43:13.556Z,26.22
2022-08-20T16:45:50.773Z,25.81
2022-08-20T16:48:20.341Z,26.94
2022-08-20T16:50:58.884Z,25.94
2022-08-20T16:53:28.037Z,25.63
2022-08-20T16:55:57.481Z,25.14
2022-08-20T16:58:26.901Z,24.56
2022-08-20T17:01:06.047Z,24.30
2022-08-20T17:03:39.667Z,23.36
2022-08-20T17:06:18.149Z,22.95
2022-08-20T17:08:51.062Z,23.01
2022-08-20T17:11:26.435Z,22.98
2022-08-20T17:14:07.766Z,22.50
2022-08-20T17:16:38.501Z,22.43
2022-08-20T17:19:13.374Z,22.31
2022-08-20T17:21:42.168Z,22.40
2022-08-20T17:24:18.991Z,22.50
2022-08-20T17:26:50.417Z,22.32
2022-08-20T17:29:25.557Z,22.21
2022-08-20T17:31:57.524Z,22.18
2022-08-20T17:34:33.860Z,22.09
2022-08-20T17:37:08.557Z,21.97
2022-08-20T17:39:37.097Z,21.77
2022-08-20T17:42:08.888Z,21.83
2022-08-20T17:44:44.374Z,21.57
2022-08-20T17:47:19.619Z,21.50
2022-08-20T17:50:02.319Z,21.43
2022-08-20T17:52:38.284Z,21.19
2022-08-20T17:55:09.453Z,21.08
2022-08-20T17:57:42.378Z,21.05
2022-08-20T18:00:17.180Z,20.91
2022-08-20T18:02:46.976Z,20.76
2022-08-20T18:05:20.593Z,20.62
2022-08-20T18:08:10.868Z,20.36
2022-08-20T18:10:43.856Z,20.24
2022-08-20T18:13:21.184Z,20.24
2022-08-20T18:15:56.580Z,20.05
2022-08-20T18:18:36.698Z,19.80
2022-08-20T18:21:59.333Z,19.46
2022-08-20T18:24:34.783Z,19.26
2022-08-20T18:27:08.810Z,19.19
2022-08-20T18:29:42.671Z,19.17
2022-08-20T18:32:28.795Z,19.11
2022-08-20T18:35:11.411Z,19.01
2022-08-20T18:37:40.019Z,18.89
2022-08-20T18:40:16.655Z,18.77
2022-08-20T18:42:45.221Z,18.79
2022-08-20T18:45:13.446Z,18.84
2022-08-20T18:47:47.987Z,18.79
2022-08-20T18:50:23.372Z,18.89
2022-08-20T18:53:08.023Z,18.73
2022-08-20T18:55:39.371Z,18.49
2022-08-20T18:58:10.149Z,18.60
2022-08-20T19:00:41.945Z,18.51
2022-08-20T19:03:20.827Z,18.67
2022-08-20T19:06:06.962Z,18.51
2022-08-20T19:08:45.773Z,18.48
2022-08-20T19:11:30.586Z,18.25
2022-08-20T19:14:19.737Z,18.32
2022-08-20T19:16:51.740Z,18.24
2022-08-20T19:19:24.094Z,18.18
2022-08-20T19:21:53.483Z,18.15
2022-08-20T19:24:27.410Z,18.01
2022-08-20T19:26:57.630Z,17.84
2022-08-20T19:29:28.787Z,17.91
2022-08-20T19:32:01.270Z,17.93
2022-08-20T19:34:31.574Z,18.03
2022-08-20T19:37:09.075Z,17.97
2022-08-20T19:39:53.094Z,17.84
2022-08-20T19:42:26.460Z,17.83
2022-08-20T19:44:57.493Z,17.69
2022-08-20T19:47:31.690Z,17.75
2022-08-20T19:50:13.155Z,17.77
2022-08-20T19:52:52.748Z,17.68
2022-08-20T19:55:25.414Z,17.63
2022-08-20T19:57:55.974Z,17.56
2022-08-20T20:00:26.784Z,17.56
2022-08-20T20:02:54.884Z,17.62
2022-08-20T20:05:25.020Z,17.62
2022-08-20T20:07:58.669Z,17.58
2022-08-20T20:10:32.996Z,17.25
2022-08-20T20:13:08.706Z,17.15
2022-08-20T20:15:37.871Z,17.28
2022-08-20T20:18:06.330Z,17.38
2022-08-20T20:20:55.835Z,17.55
2022-08-20T20:23:38.503Z,17.61
2022-08-20T20:26:19.939Z,17.42
2022-08-20T20:28:50.977Z,17.18
2022-08-20T20:31:24.914Z,17.03
2022-08-20T20:33:55.640Z,17.10
2022-08-20T20:36:36.979Z,17.24
2022-08-20T20:39:11.222Z,17.38
2022-08-20T20:41:52.044Z,17.30
2022-08-20T20:44:25.621Z,17.24
2022-08-20T20:47:00.545Z,17.21
2022-08-20T20:49:30.777Z,17.08
2022-08-20T20:52:02.756Z,17.06
2022-08-20T20:54:40.575Z,17.02
2022-08-20T20:57:31.814Z,17.23
2022-08-20T21:00:08.965Z,17.28
2022-08-20T21:02:40.472Z,17.24
2022-08-20T21:05:09.535Z,16.97
2022-08-20T21:07:50.513Z,17.00
2022-08-20T21:10:21.039Z,16.89
2022-08-20T21:12:52.676Z,16.94
2022-08-20T21:15:23.338Z,16.84
2022-08-20T21:17:51.760Z,16.72
2022-08-20T21:20:20.745Z,16.90
2022-08-20T21:22:50.160Z,16.94
2022-08-20T21:25:20.415Z,16.89
2022-08-20T21:27:50.413Z,16.71
2022-08-20T21:30:20.144Z,16.73
2022-08-20T21:32:48.318Z,16.55
2022-08-20T21:35:17.115Z,16.38
2022-08-20T21:37:45.138Z,16.31
2022-08-20T21:40:15.576Z,16.38
2022-08-20T21:42:46.617Z,16.61
2022-08-20T21:45:19.668Z,16.62
2022-08-20T21:47:49.139Z,16.35
2022-08-20T21:50:19.034Z,16.25
2022-08-20T21:52:59.345Z,16.13
2022-08-20T21:55:33.919Z,16.14
2022-08-20T21:58:04.959Z,16.29
2022-08-20T22:00:50.515Z,16.45
2022-08-20T22:03:20.022Z,16.69
2022-08-20T22:05:48.911Z,16.71
2022-08-20T22:08:17.020Z,16.69
2022-08-20T22:10:46.870Z,16.42
2022-08-20T22:13:14.743Z,16.17
2022-08-20T22:15:42.832Z,16.34
2022-08-20T22:18:10.857Z,16.51
2022-08-20T22:20:39.487Z,16.41
2022-08-20T22:23:07.759Z,16.28
2022-08-20T22:25:35.930Z,16.25
2022-08-20T22:28:05.680Z,16.16
2022-08-20T22:30:34.249Z,16.32
2022-08-20T22:33:06.326Z,16.28
2022-08-20T22:35:35.907Z,16.35
2022-08-20T22:38:04.137Z,16.16
2022-08-20T22:40:32.189Z,16.09
2022-08-20T22:43:00.226Z,16.10
2022-08-20T22:45:29.792Z,15.92
2022-08-20T22:47:57.858Z,15.75
2022-08-20T22:50:25.985Z,15.85
2022-08-20T22:52:54.884Z,15.86
2022-08-20T22:55:22.992Z,15.85
2022-08-20T22:57:52.187Z,15.86
2022-08-20T23:00:20.429Z,15.65
2022-08-20T23:02:53.398Z,15.76
2022-08-20T23:05:23.268Z,15.66
2022-08-20T23:07:54.169Z,15.69
2022-08-20T23:10:22.883Z,15.63
2022-08-20T23:12:50.954Z,15.62
2022-08-20T23:15:19.580Z,15.66
2022-08-20T23:17:49.203Z,15.86
2022-08-20T23:20:18.947Z,15.86
2022-08-20T23:22:46.940Z,15.97
2022-08-20T23:25:15.604Z,16.00
2022-08-20T23:27:47.643Z,16.04
2022-08-20T23:30:17.796Z,16.04
2022-08-20T23:32:46.303Z,15.72
2022-08-20T23:35:15.765Z,15.57
2022-08-20T23:37:46.457Z,15.73
2022-08-20T23:40:16.138Z,15.68
2022-08-20T23:42:44.196Z,15.65
2022-08-20T23:45:13.045Z,15.72
2022-08-20T23:47:41.583Z,15.76
2022-08-20T23:50:12.791Z,16.01
2022-08-20T23:52:42.311Z,16.09
2022-08-20T23:55:11.259Z,16.21
2022-08-20T23:57:40.767Z,16.31
